sensor_id;sensor_type;location;lat;lon;timestamp;pressure;altitude;pressure_sealevel;temperature;humidity
62103;BME280;48077;48.104;11.702;2023-05-24T00:00:10;95632.28;;;12.05;100.00
62103;BME280;48077;48.104;11.702;2023-05-24T00:07:40;95616.97;;;12.01;100.00
62103;BME280;48077;48.104;11.702;2023-05-24T00:10:04;95627.34;;;12.14;100.00
62103;BME280;48077;48.104;11.702;2023-05-24T00:12:28;95627.13;;;12.15;100.00
62103;BME280;48077;48.104;11.702;2023-05-24T00:14:51;95616.34;;;12.10;100.00
62103;BME280;48077;48.104;11.702;2023-05-24T00:17:14;95628.75;;;12.17;100.00
62103;BME280;48077;48.104;11.702;2023-05-24T00:19:40;95622.94;;;12.20;100.00
62103;BME280;48077;48.104;11.702;2023-05-24T00:22:03;95617.09;;;12.23;100.00
62103;BME280;48077;48.104;11.702;2023-05-24T00:24:27;95611.44;;;12.19;100.00
62103;BME280;48077;48.104;11.702;2023-05-24T00:26:50;95618.50;;;12.25;100.00
62103;BME280;48077;48.104;11.702;2023-05-24T00:29:13;95620.09;;;12.26;100.00
62103;BME280;48077;48.104;11.702;2023-05-24T00:31:37;95606.66;;;12.21;100.00
62103;BME280;48077;48.104;11.702;2023-05-24T00:34:00;95613.72;;;12.27;100.00
62103;BME280;48077;48.104;11.702;2023-05-24T00:36:24;95613.94;;;12.26;100.00
62103;BME280;48077;48.104;11.702;2023-05-24T00:38:47;95619.06;;;12.27;100.00
62103;BME280;48077;48.104;11.702;2023-05-24T00:41:11;95616.06;;;12.24;100.00
62103;BME280;48077;48.104;11.702;2023-05-24T00:43:34;95584.41;;;12.04;100.00
62103;BME280;48077;48.104;11.702;2023-05-24T00:48:43;95610.94;;;12.22;100.00
62103;BME280;48077;48.104;11.702;2023-05-24T00:51:07;95598.53;;;12.16;99.49
62103;BME280;48077;48.104;11.702;2023-05-24T00:53:31;95604.22;;;12.20;100.00
62103;BME280;48077;48.104;11.702;2023-05-24T00:55:55;95608.75;;;12.19;99.80
62103;BME280;48077;48.104;11.702;2023-05-24T00:58:20;95612.56;;;12.23;98.24
62103;BME280;48077;48.104;11.702;2023-05-24T01:00:45;95606.78;;;12.14;98.75
62103;BME280;48077;48.104;11.702;2023-05-24T01:03:11;95602.88;;;12.05;99.52
62103;BME280;48077;48.104;11.702;2023-05-24T01:05:36;95593.72;;;12.01;99.56
62103;BME280;48077;48.104;11.702;2023-05-24T01:08:03;95606.34;;;12.06;99.95
62103;BME280;48077;48.104;11.702;2023-05-24T01:10:56;95602.53;;;12.02;100.00
62103;BME280;48077;48.104;11.702;2023-05-24T01:16:14;95600.94;;;12.01;99.89
62103;BME280;48077;48.104;11.702;2023-05-24T01:18:46;95598.59;;;12.04;100.00
62103;BME280;48077;48.104;11.702;2023-05-24T01:26:38;95595.56;;;12.01;100.00
62103;BME280;48077;48.104;11.702;2023-05-24T01:29:02;95588.47;;;12.06;100.00
62103;BME280;48077;48.104;11.702;2023-05-24T01:31:26;95589.16;;;12.02;100.00
62103;BME280;48077;48.104;11.702;2023-05-24T01:33:50;95593.25;;;12.04;100.00
62103;BME280;48077;48.104;11.702;2023-05-24T01:36:13;95597.19;;;12.02;100.00
62103;BME280;48077;48.104;11.702;2023-05-24T01:38:38;95601.16;;;11.99;100.00
62103;BME280;48077;48.104;11.702;2023-05-24T01:41:37;95592.09;;;12.00;100.00
62103;BME280;48077;48.104;11.702;2023-05-24T01:44:22;95603.59;;;12.01;100.00
62103;BME280;48077;48.104;11.702;2023-05-24T01:46:57;95603.38;;;12.02;100.00
62103;BME280;48077;48.104;11.702;2023-05-24T01:49:26;95597.69;;;11.99;100.00
62103;BME280;48077;48.104;11.702;2023-05-24T01:52:18;95602.22;;;11.98;100.00
62103;BME280;48077;48.104;11.702;2023-05-24T01:54:47;95602.69;;;11.95;100.00
62103;BME280;48077;48.104;11.702;2023-05-24T01:57:13;95606.72;;;11.98;100.00
62103;BME280;48077;48.104;11.702;2023-05-24T01:59:41;95600.16;;;11.88;100.00
62103;BME280;48077;48.104;11.702;2023-05-24T02:02:05;95601.88;;;11.94;100.00
62103;BME280;48077;48.104;11.702;2023-05-24T02:04:29;95600.72;;;11.90;100.00
62103;BME280;48077;48.104;11.702;2023-05-24T02:06:52;95598.28;;;11.89;100.00
62103;BME280;48077;48.104;11.702;2023-05-24T02:09:16;95598.41;;;11.94;100.00
62103;BME280;48077;48.104;11.702;2023-05-24T02:11:39;95600.50;;;11.92;100.00
62103;BME280;48077;48.104;11.702;2023-05-24T02:14:02;95597.56;;;11.93;100.00
62103;BME280;48077;48.104;11.702;2023-05-24T02:16:26;95598.97;;;11.96;100.00
62103;BME280;48077;48.104;11.702;2023-05-24T02:18:52;95599.19;;;11.94;100.00
62103;BME280;48077;48.104;11.702;2023-05-24T02:21:16;95599.66;;;11.91;100.00
62103;BME280;48077;48.104;11.702;2023-05-24T02:23:39;95600.25;;;11.93;100.00
62103;BME280;48077;48.104;11.702;2023-05-24T02:26:03;95595.72;;;11.94;100.00
62103;BME280;48077;48.104;11.702;2023-05-24T02:28:26;95593.38;;;11.98;100.00
62103;BME280;48077;48.104;11.702;2023-05-24T02:30:52;95595.00;;;11.99;100.00
62103;BME280;48077;48.104;11.702;2023-05-24T02:33:15;95589.88;;;11.97;100.00
62103;BME280;48077;48.104;11.702;2023-05-24T02:35:38;95595.47;;;11.95;100.00
62103;BME280;48077;48.104;11.702;2023-05-24T02:38:05;95598.13;;;11.95;100.00
62103;BME280;48077;48.104;11.702;2023-05-24T02:40:29;95601.38;;;11.98;100.00
62103;BME280;48077;48.104;11.702;2023-05-24T02:42:52;95588.50;;;11.94;100.00
62103;BME280;48077;48.104;11.702;2023-05-24T02:45:16;95594.78;;;12.00;100.00
62103;BME280;48077;48.104;11.702;2023-05-24T02:47:39;95594.44;;;11.97;100.00
62103;BME280;48077;48.104;11.702;2023-05-24T02:50:02;95594.66;;;11.95;100.00
62103;BME280;48077;48.104;11.702;2023-05-24T02:52:26;95596.53;;;11.94;100.00
62103;BME280;48077;48.104;11.702;2023-05-24T02:54:49;95592.78;;;11.95;100.00
62103;BME280;48077;48.104;11.702;2023-05-24T02:57:12;95597.56;;;11.93;100.00
62103;BME280;48077;48.104;11.702;2023-05-24T02:59:36;95595.97;;;11.92;100.00
62103;BME280;48077;48.104;11.702;2023-05-24T03:01:59;95578.97;;;11.87;100.00
62103;BME280;48077;48.104;11.702;2023-05-24T03:04:23;95592.72;;;11.90;100.00
62103;BME280;48077;48.104;11.702;2023-05-24T03:06:46;95600.16;;;11.88;100.00
62103;BME280;48077;48.104;11.702;2023-05-24T03:09:09;95569.97;;;11.76;100.00
62103;BME280;48077;48.104;11.702;2023-05-24T03:11:32;95593.75;;;11.89;100.00
62103;BME280;48077;48.104;11.702;2023-05-24T03:13:56;95584.13;;;11.88;100.00
62103;BME280;48077;48.104;11.702;2023-05-24T03:16:19;95557.09;;;11.73;100.00
62103;BME280;48077;48.104;11.702;2023-05-24T03:18:43;95574.34;;;11.82;100.00
62103;BME280;48077;48.104;11.702;2023-05-24T03:21:06;95584.31;;;11.87;100.00
62103;BME280;48077;48.104;11.702;2023-05-24T03:23:29;95588.84;;;11.86;100.00
62103;BME280;48077;48.104;11.702;2023-05-24T03:25:53;95587.59;;;11.89;100.00
62103;BME280;48077;48.104;11.702;2023-05-24T03:28:16;95590.72;;;11.86;100.00
62103;BME280;48077;48.104;11.702;2023-05-24T03:30:39;95588.50;;;11.83;100.00
62103;BME280;48077;48.104;11.702;2023-05-24T03:33:03;95588.28;;;11.84;100.00
62103;BME280;48077;48.104;11.702;2023-05-24T03:35:26;95595.50;;;11.84;100.00
62103;BME280;48077;48.104;11.702;2023-05-24T03:37:50;95587.63;;;11.77;100.00
62103;BME280;48077;48.104;11.702;2023-05-24T03:40:14;95573.13;;;11.73;100.00
62103;BME280;48077;48.104;11.702;2023-05-24T03:42:37;95598.41;;;11.82;100.00
62103;BME280;48077;48.104;11.702;2023-05-24T03:45:00;95590.53;;;11.75;100.00
62103;BME280;48077;48.104;11.702;2023-05-24T03:47:24;95601.06;;;11.82;100.00
62103;BME280;48077;48.104;11.702;2023-05-24T03:49:47;95600.50;;;11.80;99.38
62103;BME280;48077;48.104;11.702;2023-05-24T03:52:13;95606.19;;;11.84;98.99
62103;BME280;48077;48.104;11.702;2023-05-24T03:54:36;95606.56;;;11.75;98.31
62103;BME280;48077;48.104;11.702;2023-05-24T03:56:59;95607.72;;;11.80;96.48
62103;BME280;48077;48.104;11.702;2023-05-24T03:59:23;95615.16;;;11.78;96.75
62103;BME280;48077;48.104;11.702;2023-05-24T04:01:47;95619.91;;;11.75;96.79
62103;BME280;48077;48.104;11.702;2023-05-24T04:04:10;95607.50;;;11.69;95.82
62103;BME280;48077;48.104;11.702;2023-05-24T04:06:33;95617.72;;;11.72;96.32
62103;BME280;48077;48.104;11.702;2023-05-24T04:08:59;95615.16;;;11.78;95.49
62103;BME280;48077;48.104;11.702;2023-05-24T04:11:23;95613.44;;;11.71;96.65
62103;BME280;48077;48.104;11.702;2023-05-24T04:13:50;95618.78;;;11.71;96.60
62103;BME280;48077;48.104;11.702;2023-05-24T04:16:13;95606.13;;;11.67;96.48
62103;BME280;48077;48.104;11.702;2023-05-24T04:18:36;95614.34;;;11.77;96.31
62103;BME280;48077;48.104;11.702;2023-05-24T04:21:00;95619.91;;;11.75;96.05
62103;BME280;48077;48.104;11.702;2023-05-24T04:23:23;95620.50;;;11.78;96.38
62103;BME280;48077;48.104;11.702;2023-05-24T04:25:46;95615.16;;;11.78;96.67
62103;BME280;48077;48.104;11.702;2023-05-24T04:28:12;95625.03;;;11.77;96.52
62103;BME280;48077;48.104;11.702;2023-05-24T04:30:37;95609.84;;;11.66;95.58
62103;BME280;48077;48.104;11.702;2023-05-24T04:33:00;95605.88;;;11.68;93.44
62103;BME280;48077;48.104;11.702;2023-05-24T04:35:24;95623.75;;;11.68;93.89
62103;BME280;48077;48.104;11.702;2023-05-24T04:37:51;95614.72;;;11.57;94.20
62103;BME280;48077;48.104;11.702;2023-05-24T04:40:17;95619.38;;;11.62;94.52
62103;BME280;48077;48.104;11.702;2023-05-24T04:42:42;95611.25;;;11.57;95.01
62103;BME280;48077;48.104;11.702;2023-05-24T04:45:06;95620.50;;;11.66;94.91
62103;BME280;48077;48.104;11.702;2023-05-24T04:47:30;95617.84;;;11.66;93.36
62103;BME280;48077;48.104;11.702;2023-05-24T04:49:53;95629.03;;;11.63;94.24
62103;BME280;48077;48.104;11.702;2023-05-24T04:52:17;95628.53;;;11.66;95.61
62103;BME280;48077;48.104;11.702;2023-05-24T04:54:40;95622.25;;;11.60;95.57
62103;BME280;48077;48.104;11.702;2023-05-24T04:57:04;95637.59;;;11.65;95.60
62103;BME280;48077;48.104;11.702;2023-05-24T04:59:27;95634.09;;;11.64;95.84
62103;BME280;48077;48.104;11.702;2023-05-24T05:01:51;95636.66;;;11.71;95.66
62103;BME280;48077;48.104;11.702;2023-05-24T05:04:14;95636.41;;;11.72;95.49
62103;BME280;48077;48.104;11.702;2023-05-24T05:06:37;95632.94;;;11.72;95.37
62103;BME280;48077;48.104;11.702;2023-05-24T05:09:03;95638.41;;;11.65;94.70
62103;BME280;48077;48.104;11.702;2023-05-24T05:11:27;95632.16;;;11.60;94.55
62103;BME280;48077;48.104;11.702;2023-05-24T05:13:50;95635.88;;;11.59;95.19
62103;BME280;48077;48.104;11.702;2023-05-24T05:16:13;95636.34;;;11.55;95.35
62103;BME280;48077;48.104;11.702;2023-05-24T05:18:37;95636.25;;;11.50;95.63
62103;BME280;48077;48.104;11.702;2023-05-24T05:21:00;95627.66;;;11.48;96.05
62103;BME280;48077;48.104;11.702;2023-05-24T05:23:25;95639.63;;;11.46;95.34
62103;BME280;48077;48.104;11.702;2023-05-24T05:25:48;95630.78;;;11.45;96.31
62103;BME280;48077;48.104;11.702;2023-05-24T05:28:11;95620.44;;;11.37;96.56
62103;BME280;48077;48.104;11.702;2023-05-24T05:30:35;95625.09;;;11.42;96.06
62103;BME280;48077;48.104;11.702;2023-05-24T05:32:58;95638.47;;;11.42;95.56
62103;BME280;48077;48.104;11.702;2023-05-24T05:35:21;95641.81;;;11.49;96.49
62103;BME280;48077;48.104;11.702;2023-05-24T05:37:45;95646.66;;;11.52;96.33
62103;BME280;48077;48.104;11.702;2023-05-24T05:40:08;95642.03;;;11.59;96.06
62103;BME280;48077;48.104;11.702;2023-05-24T05:42:32;95637.97;;;11.57;94.56
62103;BME280;48077;48.104;11.702;2023-05-24T05:44:56;95621.00;;;11.51;95.23
62103;BME280;48077;48.104;11.702;2023-05-24T05:47:19;95624.34;;;11.58;94.97
62103;BME280;48077;48.104;11.702;2023-05-24T05:49:42;95611.50;;;11.55;94.13
62103;BME280;48077;48.104;11.702;2023-05-24T05:52:06;95624.63;;;11.57;94.41
62103;BME280;48077;48.104;11.702;2023-05-24T05:54:29;95631.00;;;11.55;93.70
62103;BME280;48077;48.104;11.702;2023-05-24T05:56:53;95629.38;;;11.54;94.54
62103;BME280;48077;48.104;11.702;2023-05-24T05:59:16;95635.63;;;11.60;95.07
62103;BME280;48077;48.104;11.702;2023-05-24T06:01:40;95623.69;;;11.63;94.57
62103;BME280;48077;48.104;11.702;2023-05-24T06:04:04;95625.88;;;11.66;94.85
62103;BME280;48077;48.104;11.702;2023-05-24T06:06:27;95627.81;;;11.70;94.29
62103;BME280;48077;48.104;11.702;2023-05-24T06:08:50;95623.53;;;11.69;94.33
62103;BME280;48077;48.104;11.702;2023-05-24T06:11:14;95621.31;;;11.78;93.32
62103;BME280;48077;48.104;11.702;2023-05-24T06:13:37;95623.25;;;11.83;93.39
62103;BME280;48077;48.104;11.702;2023-05-24T06:16:00;95622.53;;;11.87;93.21
62103;BME280;48077;48.104;11.702;2023-05-24T06:18:24;95634.28;;;11.98;90.91
62103;BME280;48077;48.104;11.702;2023-05-24T06:20:49;95630.47;;;11.94;92.22
62103;BME280;48077;48.104;11.702;2023-05-24T06:23:13;95622.34;;;11.89;91.92
62103;BME280;48077;48.104;11.702;2023-05-24T06:25:36;95620.34;;;11.84;93.60
62103;BME280;48077;48.104;11.702;2023-05-24T06:28:00;95617.44;;;11.86;92.93
62103;BME280;48077;48.104;11.702;2023-05-24T06:30:24;95629.19;;;11.97;93.45
62103;BME280;48077;48.104;11.702;2023-05-24T06:32:48;95624.88;;;11.95;92.87
62103;BME280;48077;48.104;11.702;2023-05-24T06:35:11;95624.63;;;11.97;93.82
62103;BME280;48077;48.104;11.702;2023-05-24T06:37:35;95628.38;;;11.96;93.77
62103;BME280;48077;48.104;11.702;2023-05-24T06:39:58;95624.28;;;11.93;93.19
62103;BME280;48077;48.104;11.702;2023-05-24T06:42:21;95627.75;;;12.06;92.76
62103;BME280;48077;48.104;11.702;2023-05-24T06:44:45;95620.97;;;12.15;92.08
62103;BME280;48077;48.104;11.702;2023-05-24T06:47:08;95624.72;;;12.31;92.30
62103;BME280;48077;48.104;11.702;2023-05-24T06:49:31;95618.69;;;12.35;91.77
62103;BME280;48077;48.104;11.702;2023-05-24T06:51:55;95621.69;;;12.56;90.66
62103;BME280;48077;48.104;11.702;2023-05-24T06:54:18;95615.94;;;12.64;89.36
62103;BME280;48077;48.104;11.702;2023-05-24T06:56:42;95616.38;;;12.73;89.35
62103;BME280;48077;48.104;11.702;2023-05-24T06:59:05;95622.59;;;12.95;88.86
62103;BME280;48077;48.104;11.702;2023-05-24T07:01:30;95615.13;;;12.98;87.16
62103;BME280;48077;48.104;11.702;2023-05-24T07:03:54;95628.94;;;13.06;87.23
62103;BME280;48077;48.104;11.702;2023-05-24T07:06:18;95625.09;;;13.19;87.06
62103;BME280;48077;48.104;11.702;2023-05-24T07:08:41;95617.72;;;13.09;85.85
62103;BME280;48077;48.104;11.702;2023-05-24T07:11:04;95626.38;;;13.16;85.97
62103;BME280;48077;48.104;11.702;2023-05-24T07:13:28;95624.44;;;13.12;86.68
62103;BME280;48077;48.104;11.702;2023-05-24T07:15:51;95625.41;;;13.06;85.84
62103;BME280;48077;48.104;11.702;2023-05-24T07:18:14;95639.63;;;13.23;86.64
62103;BME280;48077;48.104;11.702;2023-05-24T07:20:38;95639.13;;;13.26;85.23
62103;BME280;48077;48.104;11.702;2023-05-24T07:23:02;95621.84;;;13.17;85.38
62103;BME280;48077;48.104;11.702;2023-05-24T07:25:26;95638.50;;;13.36;85.70
62103;BME280;48077;48.104;11.702;2023-05-24T07:27:50;95625.66;;;13.38;85.26
62103;BME280;48077;48.104;11.702;2023-05-24T07:30:13;95632.03;;;13.54;84.19
62103;BME280;48077;48.104;11.702;2023-05-24T07:32:37;95639.38;;;13.64;83.37
62103;BME280;48077;48.104;11.702;2023-05-24T07:35:00;95643.34;;;13.78;84.60
62103;BME280;48077;48.104;11.702;2023-05-24T07:37:24;95625.31;;;13.73;83.06
62103;BME280;48077;48.104;11.702;2023-05-24T07:39:47;95637.59;;;13.69;81.29
62103;BME280;48077;48.104;11.702;2023-05-24T07:42:11;95626.06;;;13.69;81.10
62103;BME280;48077;48.104;11.702;2023-05-24T07:44:35;95635.59;;;13.82;82.49
62103;BME280;48077;48.104;11.702;2023-05-24T07:47:00;95640.03;;;13.93;82.43
62103;BME280;48077;48.104;11.702;2023-05-24T07:49:24;95644.34;;;13.94;81.74
62103;BME280;48077;48.104;11.702;2023-05-24T07:51:48;95642.38;;;13.89;80.57
62103;BME280;48077;48.104;11.702;2023-05-24T07:54:11;95648.25;;;13.86;80.94
62103;BME280;48077;48.104;11.702;2023-05-24T07:56:35;95639.56;;;13.79;79.80
62103;BME280;48077;48.104;11.702;2023-05-24T07:58:58;95648.50;;;13.85;80.98
62103;BME280;48077;48.104;11.702;2023-05-24T08:01:26;95638.72;;;13.95;79.50
62103;BME280;48077;48.104;11.702;2023-05-24T08:03:50;95646.19;;;13.93;80.14
62103;BME280;48077;48.104;11.702;2023-05-24T08:06:14;95648.94;;;13.99;80.22
62103;BME280;48077;48.104;11.702;2023-05-24T08:08:38;95655.56;;;14.13;78.87
62103;BME280;48077;48.104;11.702;2023-05-24T08:11:03;95653.66;;;14.13;79.43
62103;BME280;48077;48.104;11.702;2023-05-24T08:13:26;95646.22;;;14.21;79.14
62103;BME280;48077;48.104;11.702;2023-05-24T08:15:49;95636.16;;;14.33;79.42
62103;BME280;48077;48.104;11.702;2023-05-24T08:18:13;95634.66;;;14.42;79.51
62103;BME280;48077;48.104;11.702;2023-05-24T08:20:37;95639.31;;;14.52;76.63
62103;BME280;48077;48.104;11.702;2023-05-24T08:23:00;95638.06;;;14.60;76.39
62103;BME280;48077;48.104;11.702;2023-05-24T08:25:24;95637.06;;;14.66;76.32
62103;BME280;48077;48.104;11.702;2023-05-24T08:27:49;95638.69;;;14.67;76.39
62103;BME280;48077;48.104;11.702;2023-05-24T08:30:13;95648.41;;;14.73;71.95
62103;BME280;48077;48.104;11.702;2023-05-24T08:32:37;95623.88;;;14.37;71.23
62103;BME280;48077;48.104;11.702;2023-05-24T08:35:00;95642.66;;;14.37;72.52
62103;BME280;48077;48.104;11.702;2023-05-24T08:37:23;95639.13;;;14.31;74.44
62103;BME280;48077;48.104;11.702;2023-05-24T08:39:47;95649.41;;;14.40;74.92
62103;BME280;48077;48.104;11.702;2023-05-24T08:42:10;95644.88;;;14.45;75.69
62103;BME280;48077;48.104;11.702;2023-05-24T08:44:40;95647.88;;;14.49;76.68
62103;BME280;48077;48.104;11.702;2023-05-24T08:47:03;95653.63;;;14.57;75.08
62103;BME280;48077;48.104;11.702;2023-05-24T08:49:29;95643.75;;;14.63;74.03
62103;BME280;48077;48.104;11.702;2023-05-24T08:51:53;95651.91;;;14.73;73.74
62103;BME280;48077;48.104;11.702;2023-05-24T08:54:16;95653.56;;;14.80;72.99
62103;BME280;48077;48.104;11.702;2023-05-24T08:56:41;95636.94;;;14.83;70.75
62103;BME280;48077;48.104;11.702;2023-05-24T08:59:07;95648.53;;;14.88;71.99
62103;BME280;48077;48.104;11.702;2023-05-24T09:01:31;95651.94;;;14.78;73.32
62103;BME280;48077;48.104;11.702;2023-05-24T09:03:54;95658.63;;;14.76;74.04
62103;BME280;48077;48.104;11.702;2023-05-24T09:06:18;95640.59;;;14.71;74.32
62103;BME280;48077;48.104;11.702;2023-05-24T09:08:42;95650.22;;;14.67;73.93
62103;BME280;48077;48.104;11.702;2023-05-24T09:11:07;95653.22;;;14.71;74.02
62103;BME280;48077;48.104;11.702;2023-05-24T09:13:31;95655.69;;;14.77;73.11
62103;BME280;48077;48.104;11.702;2023-05-24T09:15:54;95658.41;;;14.83;72.22
62103;BME280;48077;48.104;11.702;2023-05-24T09:18:18;95657.63;;;14.82;72.41
62103;BME280;48077;48.104;11.702;2023-05-24T09:20:41;95643.88;;;14.78;72.76
62103;BME280;48077;48.104;11.702;2023-05-24T09:23:04;95659.59;;;14.92;73.37
62103;BME280;48077;48.104;11.702;2023-05-24T09:25:29;95656.84;;;14.87;71.29
62103;BME280;48077;48.104;11.702;2023-05-24T09:27:53;95664.03;;;14.81;70.40
62103;BME280;48077;48.104;11.702;2023-05-24T09:30:16;95666.03;;;14.64;68.54
62103;BME280;48077;48.104;11.702;2023-05-24T09:32:39;95665.78;;;14.43;69.49
62103;BME280;48077;48.104;11.702;2023-05-24T09:35:06;95646.22;;;14.21;72.24
62103;BME280;48077;48.104;11.702;2023-05-24T09:37:30;95673.38;;;14.24;73.32
62103;BME280;48077;48.104;11.702;2023-05-24T09:39:55;95671.75;;;14.23;73.92
62103;BME280;48077;48.104;11.702;2023-05-24T09:42:21;95676.56;;;14.21;75.58
62103;BME280;48077;48.104;11.702;2023-05-24T09:44:58;95667.13;;;14.18;74.68
62103;BME280;48077;48.104;11.702;2023-05-24T09:47:28;95674.81;;;14.10;73.85
62103;BME280;48077;48.104;11.702;2023-05-24T09:49:51;95682.00;;;14.04;72.60
62103;BME280;48077;48.104;11.702;2023-05-24T09:52:14;95678.69;;;13.97;71.82
62103;BME280;48077;48.104;11.702;2023-05-24T09:54:39;95669.03;;;13.96;73.73
62103;BME280;48077;48.104;11.702;2023-05-24T09:57:04;95685.81;;;14.08;74.31
62103;BME280;48077;48.104;11.702;2023-05-24T09:59:32;95681.25;;;14.09;74.35
62103;BME280;48077;48.104;11.702;2023-05-24T10:02:06;95669.72;;;14.08;74.31
62103;BME280;48077;48.104;11.702;2023-05-24T10:04:32;95676.69;;;14.09;72.60
62103;BME280;48077;48.104;11.702;2023-05-24T10:06:59;95683.50;;;14.17;73.74
62103;BME280;48077;48.104;11.702;2023-05-24T10:09:24;95669.31;;;14.22;73.11
62103;BME280;48077;48.104;11.702;2023-05-24T10:11:48;95689.28;;;14.31;71.21
62103;BME280;48077;48.104;11.702;2023-05-24T10:14:12;95677.81;;;14.13;72.90
62103;BME280;48077;48.104;11.702;2023-05-24T10:16:35;95687.19;;;14.11;72.75
62103;BME280;48077;48.104;11.702;2023-05-24T10:19:01;95673.56;;;13.95;73.72
62103;BME280;48077;48.104;11.702;2023-05-24T10:21:28;95688.03;;;13.94;74.52
62103;BME280;48077;48.104;11.702;2023-05-24T10:23:58;95688.53;;;13.91;74.93
62103;BME280;48077;48.104;11.702;2023-05-24T10:26:23;95688.03;;;13.94;72.94
62103;BME280;48077;48.104;11.702;2023-05-24T10:28:51;95691.28;;;13.96;74.73
62103;BME280;48077;48.104;11.702;2023-05-24T10:31:33;95683.72;;;13.93;75.33
62103;BME280;48077;48.104;11.702;2023-05-24T10:33:59;95689.16;;;13.99;74.91
62103;BME280;48077;48.104;11.702;2023-05-24T10:36:24;95693.88;;;13.91;74.05
62103;BME280;48077;48.104;11.702;2023-05-24T10:38:48;95694.41;;;13.88;74.54
62103;BME280;48077;48.104;11.702;2023-05-24T10:41:12;95684.44;;;13.84;75.70
62103;BME280;48077;48.104;11.702;2023-05-24T10:43:36;95697.09;;;13.88;78.29
62103;BME280;48077;48.104;11.702;2023-05-24T10:46:01;95681.09;;;13.76;79.38
62103;BME280;48077;48.104;11.702;2023-05-24T10:50:48;95690.25;;;13.59;80.77
62103;BME280;48077;48.104;11.702;2023-05-24T10:53:16;95690.66;;;13.50;81.21
62103;BME280;48077;48.104;11.702;2023-05-24T10:55:56;95686.19;;;13.39;81.68
62103;BME280;48077;48.104;11.702;2023-05-24T10:58:22;95683.13;;;13.30;83.34
62103;BME280;48077;48.104;11.702;2023-05-24T11:00:50;95689.28;;;13.31;83.54
62103;BME280;48077;48.104;11.702;2023-05-24T11:03:14;95688.97;;;13.27;84.36
62103;BME280;48077;48.104;11.702;2023-05-24T11:08:09;95690.69;;;13.33;82.24
62103;BME280;48077;48.104;11.702;2023-05-24T11:10:34;95687.09;;;13.28;82.46
62103;BME280;48077;48.104;11.702;2023-05-24T11:13:01;95698.47;;;13.35;80.64
62103;BME280;48077;48.104;11.702;2023-05-24T11:15:26;95697.25;;;13.43;79.38
62103;BME280;48077;48.104;11.702;2023-05-24T11:20:31;95689.50;;;13.63;78.62
62103;BME280;48077;48.104;11.702;2023-05-24T11:22:55;95689.88;;;13.72;78.70
62103;BME280;48077;48.104;11.702;2023-05-24T11:25:21;95691.59;;;13.78;78.46
62103;BME280;48077;48.104;11.702;2023-05-24T11:27:44;95687.28;;;13.77;77.22
62103;BME280;48077;48.104;11.702;2023-05-24T11:30:09;95677.94;;;13.80;74.72
62103;BME280;48077;48.104;11.702;2023-05-24T11:32:34;95679.97;;;13.72;76.69
62103;BME280;48077;48.104;11.702;2023-05-24T11:34:58;95685.59;;;13.71;77.94
62103;BME280;48077;48.104;11.702;2023-05-24T11:37:21;95676.34;;;13.62;79.02
62103;BME280;48077;48.104;11.702;2023-05-24T11:39:49;95693.66;;;13.71;78.78
62103;BME280;48077;48.104;11.702;2023-05-24T11:42:13;95680.28;;;13.76;78.37
62103;BME280;48077;48.104;11.702;2023-05-24T11:44:37;95697.19;;;13.76;79.44
62103;BME280;48077;48.104;11.702;2023-05-24T11:47:01;95684.66;;;13.82;79.25
62103;BME280;48077;48.104;11.702;2023-05-24T11:49:25;95692.84;;;13.92;79.62
62103;BME280;48077;48.104;11.702;2023-05-24T11:51:49;95683.38;;;14.07;81.65
62103;BME280;48077;48.104;11.702;2023-05-24T11:54:17;95691.53;;;14.17;81.21
62103;BME280;48077;48.104;11.702;2023-05-24T11:56:41;95692.09;;;14.19;80.12
62103;BME280;48077;48.104;11.702;2023-05-24T11:59:15;95660.16;;;13.95;77.79
62103;BME280;48077;48.104;11.702;2023-05-24T12:01:39;95690.91;;;14.10;79.30
62103;BME280;48077;48.104;11.702;2023-05-24T12:04:07;95681.50;;;14.07;78.53
62103;BME280;48077;48.104;11.702;2023-05-24T12:06:38;95695.16;;;14.28;79.54
62103;BME280;48077;48.104;11.702;2023-05-24T12:09:02;95692.03;;;14.36;79.27
62103;BME280;48077;48.104;11.702;2023-05-24T12:11:28;95688.78;;;14.34;76.04
62103;BME280;48077;48.104;11.702;2023-05-24T12:13:51;95697.16;;;14.37;74.78
62103;BME280;48077;48.104;11.702;2023-05-24T12:16:15;95696.88;;;14.39;74.98
62103;BME280;48077;48.104;11.702;2023-05-24T12:18:38;95688.03;;;14.38;74.21
62103;BME280;48077;48.104;11.702;2023-05-24T12:21:07;95694.31;;;14.49;74.33
62103;BME280;48077;48.104;11.702;2023-05-24T12:23:30;95690.06;;;14.53;72.40
62103;BME280;48077;48.104;11.702;2023-05-24T12:25:58;95692.19;;;14.51;71.14
62103;BME280;48077;48.104;11.702;2023-05-24T12:28:24;95686.47;;;14.21;70.48
62103;BME280;48077;48.104;11.702;2023-05-24T12:30:48;95687.19;;;14.11;71.50
62103;BME280;48077;48.104;11.702;2023-05-24T12:33:11;95697.09;;;14.10;72.25
62103;BME280;48077;48.104;11.702;2023-05-24T12:35:35;95694.91;;;14.07;71.82
62103;BME280;48077;48.104;11.702;2023-05-24T12:37:58;95693.34;;;14.11;73.21
62103;BME280;48077;48.104;11.702;2023-05-24T12:40:22;95685.53;;;14.10;72.37
62103;BME280;48077;48.104;11.702;2023-05-24T12:42:49;95690.72;;;14.16;73.82
62103;BME280;48077;48.104;11.702;2023-05-24T12:45:13;95685.66;;;14.20;73.39
62103;BME280;48077;48.104;11.702;2023-05-24T12:47:37;95698.16;;;14.31;71.84
62103;BME280;48077;48.104;11.702;2023-05-24T12:50:00;95702.13;;;14.29;69.98
62103;BME280;48077;48.104;11.702;2023-05-24T12:52:23;95693.28;;;14.28;71.05
62103;BME280;48077;48.104;11.702;2023-05-24T12:54:47;95703.97;;;14.23;71.82
62103;BME280;48077;48.104;11.702;2023-05-24T12:57:10;95703.97;;;14.23;69.93